createdAt,value
2019-06-29T00:00:33.806Z,24.18
2019-06-29T00:03:00.462Z,24.25
2019-06-29T00:05:27.102Z,24.16
2019-06-29T00:07:53.753Z,24.19
2019-06-29T00:10:20.404Z,24.18
2019-06-29T00:12:47.030Z,24.18
2019-06-29T00:15:13.701Z,24.12
2019-06-29T00:17:40.332Z,24.11
2019-06-29T00:20:06.969Z,24.11
2019-06-29T00:22:33.615Z,24.15
2019-06-29T00:25:00.298Z,24.10
2019-06-29T00:27:26.929Z,24.08
2019-06-29T00:29:53.563Z,24.11
2019-06-29T00:32:20.214Z,24.12
2019-06-29T00:34:46.883Z,24.12
2019-06-29T00:37:13.520Z,24.08
2019-06-29T00:39:40.159Z,24.11
2019-06-29T00:42:06.808Z,24.12
2019-06-29T00:44:33.445Z,24.08
2019-06-29T00:47:00.111Z,24.06
2019-06-29T00:49:26.785Z,24.00
2019-06-29T00:51:53.430Z,23.97
2019-06-29T00:54:26.988Z,23.97
2019-06-29T00:56:46.702Z,23.95
2019-06-29T00:59:13.373Z,24.02
2019-06-29T01:01:39.995Z,23.97
2019-06-29T01:04:06.644Z,24.02
2019-06-29T01:08:59.925Z,23.99
2019-06-29T01:11:26.575Z,23.99
2019-06-29T01:13:53.202Z,24.04
2019-06-29T01:16:19.851Z,23.95
2019-06-29T01:18:46.492Z,23.98
2019-06-29T01:21:13.144Z,23.98
2019-06-29T01:23:39.780Z,23.94
2019-06-29T01:26:06.426Z,23.94
2019-06-29T01:28:33.058Z,23.93
2019-06-29T01:30:59.704Z,23.97
2019-06-29T01:33:26.335Z,23.94
2019-06-29T01:35:53.041Z,23.94
2019-06-29T01:38:19.638Z,23.93
2019-06-29T01:43:12.907Z,23.91
2019-06-29T01:45:39.574Z,23.84
2019-06-29T01:48:06.208Z,23.87
2019-06-29T01:50:32.846Z,23.89
2019-06-29T01:52:59.483Z,23.89
2019-06-29T01:55:26.135Z,23.85
2019-06-29T01:57:52.776Z,23.83
2019-06-29T02:00:19.411Z,23.81
2019-06-29T02:02:46.055Z,23.91
2019-06-29T02:05:12.692Z,23.85
2019-06-29T02:07:39.360Z,23.86
2019-06-29T02:10:06.006Z,23.85
2019-06-29T02:12:32.634Z,23.87
2019-06-29T02:14:59.276Z,23.81
2019-06-29T02:17:25.915Z,23.88
2019-06-29T02:19:52.558Z,23.84
2019-06-29T02:22:19.205Z,23.82
2019-06-29T02:24:45.852Z,23.82
2019-06-29T02:27:12.473Z,23.85
2019-06-29T02:29:39.141Z,23.89
2019-06-29T02:32:05.781Z,23.82
2019-06-29T02:34:32.440Z,23.83
2019-06-29T02:36:59.104Z,23.81
2019-06-29T02:39:25.740Z,23.81
2019-06-29T02:41:52.451Z,23.84
2019-06-29T02:44:19.077Z,23.76
2019-06-29T02:46:45.730Z,23.77
2019-06-29T02:49:12.359Z,23.80
2019-06-29T02:51:39.000Z,23.73
2019-06-29T02:54:05.627Z,23.71
2019-06-29T02:56:32.308Z,23.73
2019-06-29T02:58:58.921Z,23.78
2019-06-29T03:03:52.230Z,23.79
2019-06-29T03:06:18.902Z,23.74
2019-06-29T03:08:45.542Z,23.75
2019-06-29T03:11:12.171Z,23.76
2019-06-29T03:13:38.808Z,23.73
2019-06-29T03:16:05.446Z,23.76
2019-06-29T03:18:32.092Z,23.68
2019-06-29T03:20:58.742Z,23.68
2019-06-29T03:23:25.408Z,23.68
2019-06-29T03:25:55.097Z,23.70
2019-06-29T03:28:18.716Z,23.73
2019-06-29T03:30:45.353Z,23.65
2019-06-29T03:33:12.002Z,23.67
2019-06-29T03:38:05.380Z,23.65
2019-06-29T03:40:31.991Z,23.69
2019-06-29T03:42:58.631Z,23.72
2019-06-29T03:45:25.269Z,23.73
2019-06-29T03:47:51.904Z,23.71
2019-06-29T03:50:18.593Z,23.77
2019-06-29T03:52:45.225Z,23.77
2019-06-29T03:55:11.901Z,23.76
2019-06-29T03:57:40.670Z,23.78
2019-06-29T04:00:05.208Z,23.94
2019-06-29T04:02:31.851Z,24.20
2019-06-29T04:04:58.478Z,23.98
2019-06-29T04:07:25.130Z,24.41
2019-06-29T04:09:51.786Z,24.41
2019-06-29T04:12:18.425Z,24.50
2019-06-29T04:14:45.095Z,24.42
2019-06-29T04:17:11.742Z,24.36
2019-06-29T04:19:38.380Z,24.34
2019-06-29T04:22:05.017Z,24.35
2019-06-29T04:24:31.655Z,24.19
2019-06-29T04:26:58.302Z,24.06
2019-06-29T04:29:26.257Z,24.05
2019-06-29T04:31:51.570Z,24.31
2019-06-29T04:34:18.198Z,24.33
2019-06-29T04:36:44.844Z,24.40
2019-06-29T04:39:11.475Z,24.44
2019-06-29T04:41:38.119Z,24.49
2019-06-29T04:44:04.753Z,24.30
2019-06-29T04:46:31.392Z,24.11
2019-06-29T04:48:58.119Z,24.15
2019-06-29T04:51:24.801Z,23.97
2019-06-29T04:53:51.442Z,23.93
2019-06-29T04:56:18.126Z,23.92
2019-06-29T04:58:44.758Z,24.13
2019-06-29T05:01:11.396Z,24.22
2019-06-29T05:03:38.054Z,24.23
2019-06-29T05:06:04.677Z,24.30
2019-06-29T05:08:31.327Z,24.42
2019-06-29T05:10:57.957Z,24.47
2019-06-29T05:13:24.603Z,24.56
2019-06-29T05:15:51.246Z,24.59
2019-06-29T05:18:17.879Z,24.55
2019-06-29T05:20:44.557Z,24.57
2019-06-29T05:23:11.191Z,24.49
2019-06-29T05:25:37.869Z,24.45
2019-06-29T05:28:04.505Z,24.47
2019-06-29T05:30:31.194Z,24.52
2019-06-29T05:32:57.833Z,24.57
2019-06-29T05:35:24.470Z,24.48
2019-06-29T05:37:51.123Z,24.57
2019-06-29T05:40:17.772Z,24.55
2019-06-29T05:42:44.409Z,24.48
2019-06-29T05:45:11.060Z,24.55
2019-06-29T05:47:37.732Z,24.52
2019-06-29T05:50:04.370Z,24.58
2019-06-29T05:52:31.015Z,24.57
2019-06-29T05:54:58.641Z,24.57
2019-06-29T05:57:24.290Z,24.61
2019-06-29T05:59:50.971Z,24.60
2019-06-29T06:02:17.621Z,24.64
2019-06-29T06:04:44.258Z,24.64
2019-06-29T06:07:10.901Z,24.71
2019-06-29T06:09:37.545Z,24.73
2019-06-29T06:12:04.195Z,24.70
2019-06-29T06:14:30.895Z,24.74
2019-06-29T06:16:57.565Z,24.76
2019-06-29T06:19:24.198Z,24.81
2019-06-29T06:21:50.866Z,24.78
2019-06-29T06:24:18.810Z,24.84
2019-06-29T06:26:44.149Z,24.77
2019-06-29T06:29:10.824Z,24.90
2019-06-29T06:31:37.416Z,24.88
2019-06-29T06:34:04.065Z,24.82
2019-06-29T06:36:31.846Z,24.83
2019-06-29T06:41:24.037Z,24.84
2019-06-29T06:43:50.708Z,24.85
2019-06-29T06:46:17.353Z,24.87
2019-06-29T06:48:43.993Z,24.85
2019-06-29T06:51:10.633Z,24.87
2019-06-29T06:53:37.304Z,24.87
2019-06-29T06:56:03.947Z,24.90
2019-06-29T06:58:30.587Z,24.87
2019-06-29T07:00:57.226Z,24.89
2019-06-29T07:03:23.864Z,24.91
2019-06-29T07:05:50.557Z,24.89
2019-06-29T07:08:17.195Z,24.91
2019-06-29T07:10:43.874Z,24.91
2019-06-29T07:13:10.504Z,24.92
2019-06-29T07:15:37.197Z,24.90
2019-06-29T07:18:03.879Z,24.94
2019-06-29T07:20:30.521Z,24.96
2019-06-29T07:22:57.168Z,24.92
2019-06-29T07:25:23.811Z,24.94
2019-06-29T07:28:04.610Z,24.95
2019-06-29T07:30:17.115Z,24.95
2019-06-29T07:32:43.758Z,24.95
2019-06-29T07:35:10.391Z,24.92
2019-06-29T07:37:37.062Z,24.92
2019-06-29T07:40:03.728Z,25.00
2019-06-29T07:42:30.374Z,24.99
2019-06-29T07:44:57.017Z,24.93
2019-06-29T07:47:23.666Z,24.95
2019-06-29T07:49:50.292Z,24.98
2019-06-29T07:52:16.962Z,24.96
2019-06-29T07:54:43.598Z,24.96
2019-06-29T07:57:10.233Z,24.95
2019-06-29T08:02:03.511Z,24.94
2019-06-29T08:04:30.156Z,24.90
2019-06-29T08:06:56.875Z,24.90
2019-06-29T08:09:23.512Z,24.90
2019-06-29T08:11:50.173Z,24.87
2019-06-29T08:14:16.801Z,24.85
2019-06-29T08:16:43.488Z,24.84
2019-06-29T08:19:10.144Z,24.81
2019-06-29T08:21:36.780Z,24.82
2019-06-29T08:24:03.420Z,24.80
2019-06-29T08:26:30.049Z,24.81
2019-06-29T08:28:56.739Z,24.83
2019-06-29T08:31:23.365Z,24.66
2019-06-29T08:36:16.653Z,24.64
2019-06-29T08:38:43.324Z,24.44
2019-06-29T08:41:09.970Z,24.40
2019-06-29T08:43:36.610Z,24.49
2019-06-29T08:46:03.252Z,24.47
2019-06-29T08:48:29.922Z,24.44
2019-06-29T08:50:56.595Z,24.38
2019-06-29T08:53:23.236Z,24.44
2019-06-29T08:55:49.880Z,24.36
2019-06-29T08:58:16.518Z,24.28
2019-06-29T09:00:43.165Z,24.19
2019-06-29T09:03:09.820Z,24.28
2019-06-29T09:05:36.511Z,24.34
2019-06-29T09:08:03.144Z,24.34
2019-06-29T09:10:29.793Z,24.35
2019-06-29T09:12:56.472Z,24.41
2019-06-29T09:15:23.115Z,24.19
2019-06-29T09:17:49.768Z,24.13
2019-06-29T09:20:16.436Z,24.20
2019-06-29T09:22:43.111Z,24.13
2019-06-29T09:25:09.752Z,24.13
2019-06-29T09:27:40.288Z,24.13
2019-06-29T09:32:31.302Z,24.10
2019-06-29T09:34:56.358Z,24.10
2019-06-29T09:37:24.873Z,24.12
2019-06-29T09:39:51.844Z,24.13
2019-06-29T09:42:16.325Z,24.14
2019-06-29T09:44:43.042Z,24.04
2019-06-29T09:47:11.811Z,24.14
2019-06-29T09:49:36.344Z,24.18
2019-06-29T09:52:03.003Z,24.37
2019-06-29T09:54:31.381Z,24.41
2019-06-29T09:56:56.323Z,24.51
2019-06-29T09:59:32.305Z,24.59
2019-06-29T10:01:52.288Z,24.51
2019-06-29T10:04:16.286Z,24.47
2019-06-29T10:06:44.622Z,24.38
2019-06-29T10:09:11.294Z,24.35
2019-06-29T10:11:36.239Z,24.35
2019-06-29T10:14:02.879Z,24.25
2019-06-29T10:16:31.547Z,24.26
2019-06-29T10:18:56.201Z,24.32
2019-06-29T10:21:22.840Z,24.19
2019-06-29T10:23:49.473Z,24.21
2019-06-29T10:26:16.133Z,24.23
2019-06-29T10:28:43.379Z,24.19
2019-06-29T10:31:11.390Z,24.11
2019-06-29T10:33:36.087Z,24.13
2019-06-29T10:36:02.777Z,24.18
2019-06-29T10:38:31.547Z,24.15
2019-06-29T10:40:56.136Z,24.07
2019-06-29T10:43:22.778Z,24.04
2019-06-29T10:48:16.100Z,24.05
2019-06-29T10:50:42.737Z,24.06
2019-06-29T10:53:09.439Z,24.11
2019-06-29T10:55:36.076Z,24.03
2019-06-29T10:58:02.713Z,24.06
2019-06-29T11:00:29.372Z,24.04
2019-06-29T11:02:56.007Z,24.05
2019-06-29T11:05:22.637Z,24.05
2019-06-29T11:10:15.929Z,24.19
2019-06-29T11:12:44.817Z,24.28
2019-06-29T11:15:11.468Z,24.50
2019-06-29T11:17:35.886Z,24.43
2019-06-29T11:20:02.547Z,24.48
2019-06-29T11:22:31.940Z,24.45
2019-06-29T11:24:55.844Z,24.48
2019-06-29T11:27:23.831Z,24.40
2019-06-29T11:29:52.582Z,24.34
2019-06-29T11:32:15.813Z,24.24
2019-06-29T11:34:42.686Z,24.23
2019-06-29T11:37:09.161Z,24.19
2019-06-29T11:39:35.796Z,24.25
2019-06-29T11:42:02.767Z,24.23
2019-06-29T11:44:31.088Z,24.16
2019-06-29T11:46:55.747Z,24.22
2019-06-29T11:49:22.429Z,24.12
2019-06-29T11:54:15.740Z,24.12
2019-06-29T11:56:42.403Z,24.13
2019-06-29T11:59:09.132Z,24.09
2019-06-29T12:01:35.775Z,24.08
2019-06-29T12:04:04.766Z,24.05
2019-06-29T12:06:31.754Z,23.98
2019-06-29T12:08:55.749Z,24.05
2019-06-29T12:11:22.383Z,24.14
2019-06-29T12:13:49.018Z,24.39
2019-06-29T12:16:15.717Z,24.29
2019-06-29T12:18:44.185Z,24.48
2019-06-29T12:21:09.068Z,24.35
2019-06-29T12:23:35.769Z,24.43
2019-06-29T12:26:02.340Z,24.38
2019-06-29T12:28:29.048Z,24.28
2019-06-29T12:31:05.686Z,24.41
2019-06-29T12:33:22.372Z,24.37
2019-06-29T12:35:51.654Z,24.36
2019-06-29T12:38:15.751Z,24.26
2019-06-29T12:40:42.387Z,24.17
2019-06-29T12:43:09.018Z,24.03
2019-06-29T12:45:35.672Z,24.04
2019-06-29T12:48:02.308Z,23.98
2019-06-29T12:50:31.511Z,23.97
2019-06-29T12:52:55.601Z,23.97
2019-06-29T12:55:22.866Z,24.04
2019-06-29T13:00:15.522Z,24.29
2019-06-29T13:02:42.186Z,24.26
2019-06-29T13:05:08.819Z,24.45
2019-06-29T13:07:35.462Z,24.40
2019-06-29T13:10:02.106Z,24.37
2019-06-29T13:12:28.738Z,24.40
2019-06-29T13:14:55.392Z,24.32
2019-06-29T13:17:22.038Z,24.31
2019-06-29T13:19:48.673Z,24.30
2019-06-29T13:22:15.361Z,24.41
2019-06-29T13:24:41.997Z,24.32
2019-06-29T13:27:08.672Z,24.25
2019-06-29T13:29:35.314Z,24.23
2019-06-29T13:34:28.619Z,24.27
2019-06-29T13:36:55.293Z,24.25
2019-06-29T13:39:21.934Z,24.28
2019-06-29T13:41:48.614Z,24.23
2019-06-29T13:44:15.226Z,24.23
2019-06-29T13:46:41.929Z,24.20
2019-06-29T13:49:08.605Z,24.30
2019-06-29T13:51:38.022Z,24.23
2019-06-29T13:54:04.683Z,24.16
2019-06-29T13:56:31.291Z,24.22
2019-06-29T13:58:58.014Z,24.26
2019-06-29T14:01:24.602Z,24.18
2019-06-29T14:03:51.242Z,24.20
2019-06-29T14:08:44.513Z,24.13
2019-06-29T14:11:11.153Z,24.16
2019-06-29T14:13:37.826Z,24.24
2019-06-29T14:16:04.471Z,24.23
2019-06-29T14:18:31.110Z,24.09
2019-06-29T14:20:57.746Z,24.18
2019-06-29T14:23:25.809Z,24.17
2019-06-29T14:25:51.041Z,24.14
2019-06-29T14:28:17.689Z,24.11
2019-06-29T14:30:46.645Z,24.14
2019-06-29T14:33:11.085Z,24.14
2019-06-29T14:35:40.199Z,24.16
2019-06-29T14:38:06.882Z,24.20
2019-06-29T14:43:00.198Z,24.01
2019-06-29T14:45:26.882Z,24.10
2019-06-29T14:47:54.285Z,24.17
2019-06-29T14:50:20.157Z,24.24
2019-06-29T14:52:46.858Z,24.17
2019-06-29T14:55:15.292Z,24.14
2019-06-29T14:57:40.138Z,24.16
2019-06-29T15:00:06.877Z,24.18
2019-06-29T15:02:33.501Z,24.09
2019-06-29T15:05:00.267Z,24.17
2019-06-29T15:07:26.957Z,24.14
2019-06-29T15:09:53.586Z,24.14
2019-06-29T15:12:20.228Z,24.04
2019-06-29T15:14:46.866Z,24.05
2019-06-29T15:17:13.505Z,23.99
2019-06-29T15:19:40.147Z,24.10
2019-06-29T15:22:06.786Z,24.10
2019-06-29T15:27:00.083Z,23.95
2019-06-29T15:29:26.737Z,24.03
2019-06-29T15:31:53.366Z,23.95
2019-06-29T15:34:20.801Z,24.04
2019-06-29T15:36:46.634Z,24.00
2019-06-29T15:39:13.283Z,24.03
2019-06-29T15:41:39.923Z,23.95
2019-06-29T15:44:06.558Z,23.94
2019-06-29T15:46:33.197Z,24.01
2019-06-29T15:48:59.934Z,23.85
2019-06-29T15:51:26.580Z,23.85
2019-06-29T15:53:53.271Z,23.84
2019-06-29T15:56:19.867Z,23.80
2019-06-29T15:58:46.504Z,23.92
2019-06-29T16:01:13.144Z,24.02
2019-06-29T16:03:39.787Z,23.93
2019-06-29T16:06:06.424Z,24.03
2019-06-29T16:08:33.057Z,24.21
2019-06-29T16:10:59.702Z,24.33
2019-06-29T16:13:26.334Z,24.40
2019-06-29T16:15:52.979Z,24.43
2019-06-29T16:18:19.622Z,24.33
2019-06-29T16:20:46.313Z,24.38
2019-06-29T16:23:12.899Z,24.33
2019-06-29T16:25:39.557Z,24.10
2019-06-29T16:28:09.145Z,24.07
2019-06-29T16:30:32.846Z,24.19
2019-06-29T16:32:59.496Z,24.19
2019-06-29T16:35:26.137Z,24.28
2019-06-29T16:37:52.769Z,24.23
2019-06-29T16:40:19.407Z,24.33
2019-06-29T16:42:46.046Z,24.41
2019-06-29T16:45:12.690Z,23.98
2019-06-29T16:47:39.321Z,23.95
2019-06-29T16:50:05.978Z,24.09
2019-06-29T16:52:32.616Z,23.90
2019-06-29T16:54:59.264Z,24.20
2019-06-29T16:57:25.898Z,24.23
2019-06-29T16:59:52.554Z,24.34
2019-06-29T17:02:19.225Z,24.46
2019-06-29T17:04:45.862Z,24.46
2019-06-29T17:09:39.131Z,24.40
2019-06-29T17:12:05.775Z,24.41
2019-06-29T17:14:32.411Z,24.09
2019-06-29T17:16:59.186Z,24.02
2019-06-29T17:19:25.700Z,24.09
2019-06-29T17:21:52.331Z,24.10
2019-06-29T17:24:18.967Z,24.14
2019-06-29T17:26:45.601Z,24.32
2019-06-29T17:29:12.240Z,24.36
2019-06-29T17:31:38.872Z,24.47
2019-06-29T17:34:05.518Z,24.48
2019-06-29T17:36:32.147Z,24.57
2019-06-29T17:38:58.795Z,24.36
2019-06-29T17:43:52.075Z,24.03
2019-06-29T17:46:18.709Z,24.05
2019-06-29T17:48:45.342Z,24.16
2019-06-29T17:51:12.082Z,24.26
2019-06-29T17:53:38.728Z,24.30
2019-06-29T17:56:05.368Z,24.48
2019-06-29T17:58:32.056Z,24.57
2019-06-29T18:00:58.687Z,24.45
2019-06-29T18:03:25.331Z,24.47
2019-06-29T18:05:51.967Z,24.52
2019-06-29T18:08:18.610Z,24.41
2019-06-29T18:10:45.253Z,24.37
2019-06-29T18:13:11.893Z,24.44
2019-06-29T18:18:08.209Z,24.60
2019-06-29T18:20:31.824Z,24.46
2019-06-29T18:22:58.460Z,24.07
2019-06-29T18:25:25.111Z,23.94
2019-06-29T18:27:51.735Z,24.08
2019-06-29T18:30:18.372Z,24.01
2019-06-29T18:32:45.015Z,24.18
2019-06-29T18:35:11.645Z,24.33
2019-06-29T18:40:05.044Z,24.37
2019-06-29T18:42:31.678Z,24.41
2019-06-29T18:44:58.297Z,24.40
2019-06-29T18:47:24.950Z,24.41
2019-06-29T18:49:51.591Z,24.38
2019-06-29T18:52:18.226Z,24.40
2019-06-29T18:54:44.854Z,24.44
2019-06-29T18:57:11.494Z,24.44
2019-06-29T18:59:38.129Z,24.47
2019-06-29T19:02:04.778Z,24.47
2019-06-29T19:04:41.902Z,24.45
2019-06-29T19:06:58.068Z,24.46
2019-06-29T19:09:24.721Z,24.49
2019-06-29T19:11:51.349Z,24.48
2019-06-29T19:14:17.997Z,24.47
2019-06-29T19:16:44.653Z,24.53
2019-06-29T19:19:11.291Z,24.52
2019-06-29T19:21:37.955Z,24.48
2019-06-29T19:24:04.595Z,24.50
2019-06-29T19:26:31.262Z,24.46
2019-06-29T19:28:57.938Z,24.49
2019-06-29T19:31:24.534Z,24.45
2019-06-29T19:33:51.171Z,24.44
2019-06-29T19:36:17.811Z,24.49
2019-06-29T19:38:44.451Z,24.45
2019-06-29T19:41:11.092Z,24.39
2019-06-29T19:43:37.762Z,24.41
2019-06-29T19:46:04.456Z,24.43
2019-06-29T19:48:31.134Z,24.39
2019-06-29T19:50:57.770Z,24.40
2019-06-29T19:53:24.421Z,24.37
2019-06-29T19:55:51.102Z,24.34
2019-06-29T20:00:44.392Z,24.38
2019-06-29T20:03:11.045Z,24.42
2019-06-29T20:05:37.681Z,24.34
2019-06-29T20:08:04.319Z,24.36
2019-06-29T20:10:30.958Z,24.33
2019-06-29T20:12:57.608Z,24.35
2019-06-29T20:15:24.403Z,24.36
2019-06-29T20:17:51.040Z,24.28
2019-06-29T20:22:44.322Z,24.32
2019-06-29T20:25:10.971Z,24.23
2019-06-29T20:27:37.618Z,24.27
2019-06-29T20:30:04.256Z,24.26
2019-06-29T20:32:30.890Z,24.28
2019-06-29T20:34:57.531Z,24.26
2019-06-29T20:37:24.165Z,24.24
2019-06-29T20:39:50.796Z,24.26
2019-06-29T20:42:17.444Z,24.23
2019-06-29T20:44:44.076Z,24.25
2019-06-29T20:47:10.756Z,24.19
2019-06-29T20:49:37.405Z,24.26
2019-06-29T20:52:04.044Z,24.22
2019-06-29T20:54:30.693Z,24.19
2019-06-29T20:56:57.315Z,24.19
2019-06-29T20:59:23.958Z,24.21
2019-06-29T21:01:50.621Z,24.20
2019-06-29T21:04:17.268Z,24.18
2019-06-29T21:06:43.895Z,24.20
2019-06-29T21:09:10.545Z,24.19
2019-06-29T21:11:37.175Z,24.15
2019-06-29T21:14:03.823Z,24.15
2019-06-29T21:16:30.467Z,24.15
2019-06-29T21:18:57.106Z,24.24
2019-06-29T21:21:23.749Z,24.17
2019-06-29T21:23:50.384Z,24.15
2019-06-29T21:26:17.027Z,24.18
2019-06-29T21:28:43.660Z,24.14
2019-06-29T21:31:10.402Z,24.13
2019-06-29T21:33:37.093Z,24.13
2019-06-29T21:36:05.529Z,24.13
2019-06-29T21:38:30.506Z,24.09
2019-06-29T21:40:57.127Z,24.12
2019-06-29T21:43:23.772Z,24.11
2019-06-29T21:45:50.406Z,24.14
2019-06-29T21:48:17.057Z,24.05
2019-06-29T21:50:43.690Z,24.03
2019-06-29T21:53:10.325Z,24.04
2019-06-29T21:55:36.963Z,24.03
2019-06-29T21:58:03.640Z,24.04
2019-06-29T22:00:30.327Z,24.01
2019-06-29T22:02:56.953Z,24.02
2019-06-29T22:05:23.587Z,24.02
2019-06-29T22:07:53.708Z,24.03
2019-06-29T22:10:20.339Z,24.06
2019-06-29T22:12:47.032Z,23.99
2019-06-29T22:17:40.311Z,23.98
2019-06-29T22:20:06.953Z,24.03
2019-06-29T22:22:33.633Z,24.00
2019-06-29T22:25:00.341Z,23.96
2019-06-29T22:27:26.901Z,24.00
2019-06-29T22:29:53.545Z,23.97
2019-06-29T22:32:20.242Z,23.95
2019-06-29T22:34:46.883Z,23.98
2019-06-29T22:37:13.524Z,23.95
2019-06-29T22:39:40.170Z,23.91
2019-06-29T22:42:06.803Z,23.92
2019-06-29T22:44:33.532Z,23.92
2019-06-29T22:47:00.150Z,23.94
2019-06-29T22:49:26.795Z,23.92
2019-06-29T22:51:53.533Z,23.87
2019-06-29T22:54:20.209Z,23.93
2019-06-29T22:56:46.930Z,23.95
2019-06-29T22:59:13.490Z,23.87
2019-06-29T23:01:40.133Z,23.87
2019-06-29T23:04:06.767Z,23.82
2019-06-29T23:06:33.403Z,23.86
2019-06-29T23:09:00.080Z,23.85
2019-06-29T23:11:26.714Z,23.89
2019-06-29T23:13:53.386Z,23.82
2019-06-29T23:16:20.048Z,23.78
2019-06-29T23:18:46.713Z,23.81
2019-06-29T23:21:13.350Z,23.83
2019-06-29T23:23:39.990Z,23.78
2019-06-29T23:26:06.640Z,23.79
2019-06-29T23:28:33.275Z,23.80
2019-06-29T23:30:59.927Z,23.79
2019-06-29T23:33:29.444Z,23.73
2019-06-29T23:38:19.890Z,23.75
2019-06-29T23:40:46.529Z,23.73
2019-06-29T23:43:13.158Z,23.74
2019-06-29T23:45:39.808Z,23.73
2019-06-29T23:48:06.518Z,23.72
2019-06-29T23:50:33.186Z,23.67
2019-06-29T23:52:59.854Z,23.67
2019-06-29T23:55:26.487Z,23.71
2019-06-29T23:57:53.115Z,23.67
